createdAt,value
2019-02-11T00:04:21.054Z,3.5
2019-02-11T00:09:20.877Z,3.5
2019-02-11T00:14:20.646Z,3.6
2019-02-11T00:19:21.419Z,3.6
2019-02-11T00:24:21.217Z,2.7
2019-02-11T00:29:21.082Z,2.7
2019-02-11T00:34:21.468Z,2.7
2019-02-11T00:39:21.194Z,2.7
2019-02-11T00:44:20.901Z,2.7
2019-02-11T00:49:20.710Z,2.7
2019-02-11T00:54:21.544Z,2.2
2019-02-11T00:59:21.394Z,2.2
2019-02-11T01:04:21.353Z,2.7
2019-02-11T01:09:21.542Z,2.7
2019-02-11T01:14:21.351Z,2.2
2019-02-11T01:19:21.111Z,2.2
2019-02-11T01:24:20.983Z,2.2
2019-02-11T01:29:20.864Z,2.2
2019-02-11T01:34:21.079Z,2.2
2019-02-11T01:39:21.374Z,2.2
2019-02-11T01:44:21.178Z,1.3
2019-02-11T01:49:21.423Z,1.3
2019-02-11T01:54:21.227Z,1.7
2019-02-11T01:59:20.966Z,1.7
2019-02-11T02:04:20.949Z,1.8
2019-02-11T02:09:20.723Z,1.8
2019-02-11T02:14:21.608Z,2.2
2019-02-11T02:19:21.443Z,2.2
2019-02-11T02:24:21.227Z,2.3
2019-02-11T02:29:20.918Z,2.3
2019-02-11T02:34:20.697Z,3.1
2019-02-11T02:39:21.505Z,3.1
2019-02-11T02:44:21.056Z,2.7
2019-02-11T02:49:20.881Z,2.7
2019-02-11T02:54:20.898Z,2.2
2019-02-11T02:59:21.637Z,2.2
2019-02-11T03:04:21.522Z,2
2019-02-11T03:09:21.547Z,2
2019-02-11T03:14:21.494Z,1.8
2019-02-11T03:19:21.324Z,1.8
2019-02-11T03:24:21.171Z,2.2
2019-02-11T03:29:20.951Z,2.2
2019-02-11T03:34:21.758Z,1.8
2019-02-11T03:39:20.806Z,1.8
2019-02-11T03:44:21.642Z,2.1
2019-02-11T03:49:21.407Z,2.1
2019-02-11T03:54:21.192Z,2.7
2019-02-11T03:59:20.993Z,2.7
2019-02-11T04:04:21.213Z,2.8
2019-02-11T04:09:20.808Z,2.8
2019-02-11T04:14:25.066Z,3.1
2019-02-11T04:19:21.028Z,3.1
2019-02-11T04:24:20.824Z,2.7
2019-02-11T04:29:21.637Z,2.7
2019-02-11T04:34:21.429Z,3.1
2019-02-11T04:39:21.192Z,3.1
2019-02-11T04:44:20.962Z,3.1
2019-02-11T04:49:21.715Z,3.1
2019-02-11T04:54:21.534Z,3.1
2019-02-11T04:59:21.271Z,3.1
2019-02-11T05:04:21.235Z,2.7
2019-02-11T05:09:20.998Z,2.7
2019-02-11T05:14:21.777Z,3
2019-02-11T05:19:21.647Z,3
2019-02-11T05:24:21.483Z,2.7
2019-02-11T05:29:21.331Z,2.7
2019-02-11T05:34:21.520Z,3
2019-02-11T05:39:21.416Z,3
2019-02-11T05:44:21.212Z,3.1
2019-02-11T05:49:21.058Z,3.1
2019-02-11T05:54:21.783Z,3.7
2019-02-11T05:59:21.553Z,3.7
2019-02-11T06:04:21.490Z,3.6
2019-02-11T06:09:23.130Z,3.6
2019-02-11T06:14:21.341Z,3.1
2019-02-11T06:19:21.173Z,3.1
2019-02-11T06:24:21.165Z,3.6
2019-02-11T06:29:20.975Z,3.6
2019-02-11T06:34:21.291Z,3.8
2019-02-11T06:39:21.190Z,3.8
2019-02-11T06:44:21.046Z,4.4
2019-02-11T06:49:21.889Z,4.4
2019-02-11T06:54:21.695Z,3.6
2019-02-11T06:59:21.548Z,3.6
2019-02-11T07:04:21.714Z,3.7
2019-02-11T07:09:21.396Z,3.7
2019-02-11T07:14:21.283Z,4.3
2019-02-11T07:19:21.316Z,4.3
2019-02-11T07:24:21.170Z,3.3
2019-02-11T07:29:21.049Z,3.3
2019-02-11T07:34:21.915Z,2.7
2019-02-11T07:39:21.846Z,2.7
2019-02-11T07:44:21.670Z,3.1
2019-02-11T07:49:21.536Z,3.1
2019-02-11T07:54:21.359Z,2.7
2019-02-11T07:59:21.150Z,2.7
2019-02-11T08:04:22.063Z,3.5
2019-02-11T08:09:21.912Z,3.5
2019-02-11T08:14:21.699Z,2.7
2019-02-11T08:19:21.474Z,2.7
2019-02-11T08:24:21.636Z,3.1
2019-02-11T08:29:21.347Z,3.1
2019-02-11T08:34:21.080Z,2.7
2019-02-11T08:39:21.823Z,2.7
2019-02-11T08:44:21.611Z,3.6
2019-02-11T08:49:21.750Z,3.6
2019-02-11T08:54:21.445Z,3.1
2019-02-11T08:59:21.433Z,3.1
2019-02-11T09:04:21.364Z,3.1
2019-02-11T09:09:22.179Z,3.1
2019-02-11T09:14:21.988Z,4
2019-02-11T09:19:21.725Z,4
2019-02-11T09:24:21.403Z,3.9
2019-02-11T09:29:21.145Z,3.9
2019-02-11T09:34:22.043Z,3.5
2019-02-11T09:39:21.783Z,3.5
2019-02-11T09:44:29.294Z,3.4
2019-02-11T09:49:21.457Z,3.4
2019-02-11T09:54:21.283Z,4
2019-02-11T09:59:21.924Z,4
2019-02-11T10:04:23.606Z,4
2019-02-11T10:09:21.826Z,4
2019-02-11T10:14:21.427Z,2.7
2019-02-11T10:19:21.130Z,2.7
2019-02-11T10:24:22.085Z,2.7
2019-02-11T10:29:21.772Z,2.7
2019-02-11T10:34:21.664Z,2.5
2019-02-11T10:39:21.349Z,2.5
2019-02-11T10:44:22.072Z,3
2019-02-11T10:49:21.825Z,3
2019-02-11T10:54:21.132Z,2.7
2019-02-11T10:59:21.900Z,2.7
2019-02-11T11:04:21.729Z,3.4
2019-02-11T11:09:21.236Z,3.4
2019-02-11T11:14:22.031Z,3.3
2019-02-11T11:19:21.844Z,3.3
2019-02-11T11:24:22.121Z,3.6
2019-02-11T11:29:22.095Z,3.6
2019-02-11T11:34:21.837Z,3.6
2019-02-11T11:39:21.644Z,3.6
2019-02-11T11:44:21.403Z,3.6
2019-02-11T11:49:22.183Z,3.6
2019-02-11T11:54:21.261Z,3
2019-02-11T11:59:21.972Z,3
2019-02-11T12:04:21.937Z,4.5
2019-02-11T12:09:21.754Z,4.5
2019-02-11T12:14:21.638Z,4
2019-02-11T12:19:21.449Z,4
2019-02-11T12:24:22.256Z,3.1
2019-02-11T12:29:22.078Z,3.1
2019-02-11T12:34:22.101Z,3.1
2019-02-11T12:39:21.816Z,3.1
2019-02-11T12:44:21.684Z,3.1
2019-02-11T12:49:21.585Z,3.1
2019-02-11T12:54:21.428Z,2.8
2019-02-11T12:59:22.141Z,2.8
2019-02-11T13:04:22.017Z,4
2019-02-11T13:09:21.913Z,4
2019-02-11T13:14:22.079Z,3.1
2019-02-11T13:19:21.995Z,3.1
2019-02-11T13:24:21.601Z,3.5
2019-02-11T13:29:21.563Z,3.5
2019-02-11T13:34:22.411Z,4.4
2019-02-11T13:39:22.269Z,4.4
2019-02-11T13:44:22.106Z,3.1
2019-02-11T13:49:21.853Z,3.1
2019-02-11T13:54:21.765Z,3.1
2019-02-11T13:59:21.773Z,3.1
2019-02-11T14:04:21.867Z,3.8
2019-02-11T14:09:21.694Z,3.8
2019-02-11T14:14:21.522Z,4
2019-02-11T14:19:22.404Z,4
2019-02-11T14:24:21.714Z,3.6
2019-02-11T14:29:21.529Z,3.6
2019-02-11T14:34:22.507Z,3.7
2019-02-11T14:39:22.318Z,3.7
2019-02-11T14:44:22.149Z,3.8
2019-02-11T14:49:22.064Z,3.8
2019-02-11T14:54:21.802Z,3.2
2019-02-11T14:59:21.576Z,3.2
2019-02-11T15:04:22.557Z,3.4
2019-02-11T15:09:21.498Z,3.4
2019-02-11T15:14:21.849Z,3.1
2019-02-11T15:19:21.564Z,3.1
2019-02-11T15:24:22.254Z,3.1
2019-02-11T15:29:21.928Z,3.1
2019-02-11T15:34:22.174Z,2.7
2019-02-11T15:39:21.841Z,2.7
2019-02-11T15:44:21.688Z,3.1
2019-02-11T15:49:22.453Z,3.1
2019-02-11T15:54:22.275Z,2.4
2019-02-11T15:59:21.985Z,2.4
2019-02-11T16:04:21.908Z,2.3
2019-02-11T16:09:21.740Z,2.3
2019-02-11T16:14:22.125Z,3.8
2019-02-11T16:19:21.873Z,3.8
2019-02-11T16:24:21.559Z,3.2
2019-02-11T16:29:22.361Z,3.2
2019-02-11T16:34:22.099Z,3.6
2019-02-11T16:39:21.938Z,3.6
2019-02-11T16:44:21.755Z,3.1
2019-02-11T16:49:22.079Z,3.1
2019-02-11T16:54:21.791Z,3.6
2019-02-11T16:59:22.440Z,3.6
2019-02-11T17:04:22.301Z,3.9
2019-02-11T17:09:22.188Z,3.9
2019-02-11T17:14:22.149Z,4.1
2019-02-11T17:19:22.005Z,4.1
2019-02-11T17:24:21.718Z,3.8
2019-02-11T17:29:22.500Z,3.8
2019-02-11T17:34:22.251Z,3.4
2019-02-11T17:39:22.045Z,3.4
2019-02-11T17:44:22.001Z,3.6
2019-02-11T17:49:21.854Z,3.6
2019-02-11T17:54:22.529Z,3.6
2019-02-11T17:59:22.228Z,3.6
2019-02-11T18:04:22.091Z,2.7
2019-02-11T18:09:21.984Z,2.7
2019-02-11T18:14:22.249Z,3.1
2019-02-11T18:19:26.209Z,3.1
2019-02-11T18:24:22.559Z,2.9
2019-02-11T18:29:22.339Z,2.9
2019-02-11T18:34:22.107Z,3.1
2019-02-11T18:39:21.940Z,3.1
2019-02-11T18:44:22.666Z,2.7
2019-02-11T18:49:22.349Z,2.7
2019-02-11T18:54:22.146Z,2.7
2019-02-11T18:59:24.748Z,2.7
2019-02-11T19:04:22.125Z,2.7
2019-02-11T19:09:22.136Z,2.7
2019-02-11T19:14:22.057Z,2.7
2019-02-11T19:19:21.788Z,2.7
2019-02-11T19:24:22.562Z,2.2
2019-02-11T19:29:22.286Z,2.2
2019-02-11T19:34:22.158Z,1.8
2019-02-11T19:39:21.953Z,1.8
2019-02-11T19:44:22.689Z,2.2
2019-02-11T19:49:22.420Z,2.2
2019-02-11T19:54:22.217Z,2.7
2019-02-11T19:59:21.989Z,2.7
2019-02-11T20:04:21.958Z,2.7
2019-02-11T20:09:21.855Z,2.7
2019-02-11T20:14:22.074Z,2.7
2019-02-11T20:19:21.918Z,2.7
2019-02-11T20:24:21.785Z,2
2019-02-11T20:29:22.464Z,2
2019-02-11T20:34:22.274Z,2.4
2019-02-11T20:39:22.038Z,2.4
2019-02-11T20:44:22.753Z,2.2
2019-02-11T20:49:22.609Z,2.2
2019-02-11T20:54:22.484Z,2.2
2019-02-11T20:59:22.211Z,2.2
2019-02-11T21:04:22.072Z,2.2
2019-02-11T21:09:21.916Z,2.2
2019-02-11T21:14:21.964Z,2.1
2019-02-11T21:19:22.752Z,2.1
2019-02-11T21:24:22.462Z,1.8
2019-02-11T21:29:22.221Z,1.8
2019-02-11T21:34:22.057Z,2.2
2019-02-11T21:39:22.840Z,2.2
2019-02-11T21:44:22.686Z,2.2
2019-02-11T21:49:22.423Z,2.2
2019-02-11T21:54:22.187Z,2.2
2019-02-11T21:59:21.884Z,2.2
2019-02-11T22:04:22.150Z,2.2
2019-02-11T22:09:22.199Z,2.2
2019-02-11T22:14:22.700Z,2.4
2019-02-11T22:19:22.474Z,2.4
2019-02-11T22:24:22.206Z,2.2
2019-02-11T22:29:22.056Z,2.2
2019-02-11T22:34:22.501Z,2.2
2019-02-11T22:39:22.821Z,2.2
2019-02-11T22:44:22.645Z,2.1
2019-02-11T22:49:22.876Z,2.1
2019-02-11T22:54:22.896Z,2.2
2019-02-11T22:59:22.908Z,2.2
2019-02-11T23:04:22.526Z,2.7
2019-02-11T23:09:22.715Z,2.7
2019-02-11T23:14:22.714Z,2.7
2019-02-11T23:19:22.607Z,2.7
2019-02-11T23:24:22.394Z,2.7
2019-02-11T23:29:22.391Z,2.7
2019-02-11T23:34:22.411Z,2.4
2019-02-11T23:39:22.189Z,2.4
2019-02-11T23:44:22.877Z,2.7
2019-02-11T23:49:22.711Z,2.7
2019-02-11T23:54:22.435Z,2.3
2019-02-11T23:59:22.172Z,2.3
